Time;durP1;ratioP1;P1;durP2;ratioP2;P2;SDS_P1;SDS_P2;PMS_P1;PMS_P2;Temp;Humidity;BMP_temperature;BMP_pressure;BME280_temperature;BME280_humidity;BME280_pressure;Samples;Min_cycle;Max_cycle;Signal;HPM_P1;HPM_P2
2023/09/30 00:02:07;;;;;;;12.03;10.77;;;14.80;99.90;;;;;;5116964;28;20171;-72
2023/09/30 00:04:33;;;;;;;15.77;10.73;;;14.90;99.90;;;;;;5116563;28;20588;-73
2023/09/30 00:06:59;;;;;;;20.03;10.93;;;14.90;99.90;;;;;;5116606;28;20171;-72
2023/09/30 00:09:25;;;;;;;14.40;10.57;;;14.90;99.90;;;;;;5116468;28;20210;-73
2023/09/30 00:11:50;;;;;;;15.60;10.97;;;14.80;99.90;;;;;;5116598;28;20175;-73
2023/09/30 00:14:17;;;;;;;15.03;10.67;;;14.80;99.90;;;;;;5116367;28;20186;-73
2023/09/30 00:16:42;;;;;;;17.57;11.30;;;14.70;99.90;;;;;;5116369;28;20582;-73
2023/09/30 00:19:09;;;;;;;12.60;10.03;;;14.70;99.90;;;;;;5116175;28;20175;-73
2023/09/30 00:21:35;;;;;;;12.87;10.80;;;14.60;99.90;;;;;;5116176;28;20231;-73
2023/09/30 00:24:00;;;;;;;12.43;11.10;;;14.60;99.90;;;;;;5116301;28;20167;-73
2023/09/30 00:26:26;;;;;;;16.30;11.07;;;14.50;99.90;;;;;;5116231;28;20171;-73
2023/09/30 00:28:52;;;;;;;13.07;10.80;;;14.40;99.90;;;;;;5115716;28;20207;-73
2023/09/30 00:31:17;;;;;;;14.37;10.67;;;14.40;99.90;;;;;;5116205;28;20251;-73
2023/09/30 00:33:43;;;;;;;13.97;10.60;;;14.40;99.90;;;;;;5115798;28;20171;-73
2023/09/30 00:36:10;;;;;;;22.83;12.07;;;14.40;99.90;;;;;;5116148;28;20171;-73
2023/09/30 00:38:36;;;;;;;23.40;12.20;;;14.40;99.90;;;;;;5116165;28;20168;-72
2023/09/30 00:41:02;;;;;;;27.10;12.77;;;14.30;99.90;;;;;;5116224;28;20171;-72
2023/09/30 00:43:28;;;;;;;22.33;11.83;;;14.30;99.90;;;;;;5115840;27;20545;-72
2023/09/30 00:46:23;;;;;;;17.40;11.50;;;14.30;99.90;;;;;;5115786;28;20254;-72
2023/09/30 00:48:49;;;;;;;21.97;11.37;;;14.30;99.90;;;;;;5097886;28;20247;-72
2023/09/30 00:51:15;;;;;;;19.03;11.47;;;14.30;99.90;;;;;;5115911;28;20206;-72
2023/09/30 00:53:41;;;;;;;15.33;11.17;;;14.30;99.90;;;;;;5115756;28;20570;-73
2023/09/30 00:56:07;;;;;;;17.50;11.60;;;14.30;99.90;;;;;;5115858;28;20172;-72
2023/09/30 00:58:34;;;;;;;13.90;10.20;;;14.40;99.90;;;;;;5115583;28;20167;-72
2023/09/30 01:01:00;;;;;;;16.73;11.27;;;14.30;99.90;;;;;;5115825;28;20296;-72
2023/09/30 01:03:25;;;;;;;20.53;11.07;;;14.40;99.90;;;;;;5115159;28;20626;-72
2023/09/30 01:05:51;;;;;;;21.53;10.80;;;14.40;99.90;;;;;;5115670;28;20216;-72
2023/09/30 01:08:18;;;;;;;20.63;10.80;;;14.40;99.90;;;;;;5115321;28;20218;-72
2023/09/30 01:10:44;;;;;;;14.33;10.83;;;14.40;99.90;;;;;;5115629;28;20385;-72
2023/09/30 01:13:09;;;;;;;17.50;11.03;;;14.50;99.90;;;;;;5115452;27;20171;-72
2023/09/30 01:15:36;;;;;;;16.97;10.67;;;14.50;99.90;;;;;;5115283;28;20186;-73
2023/09/30 01:18:03;;;;;;;16.77;10.50;;;14.50;99.90;;;;;;5114899;28;20163;-73
2023/09/30 01:20:29;;;;;;;16.90;10.13;;;14.50;99.90;;;;;;5115254;28;20155;-73
2023/09/30 01:22:56;;;;;;;14.80;10.67;;;14.50;99.90;;;;;;5115324;28;20255;-73
2023/09/30 01:25:22;;;;;;;15.57;10.10;;;14.50;99.90;;;;;;5115365;28;20164;-73
2023/09/30 01:27:48;;;;;;;17.30;10.27;;;14.50;99.90;;;;;;5115116;28;20201;-73
2023/09/30 01:30:13;;;;;;;15.80;9.80;;;14.50;99.90;;;;;;5115215;28;20178;-73
2023/09/30 01:32:40;;;;;;;13.63;10.40;;;14.40;99.90;;;;;;5114970;28;20167;-72
2023/09/30 01:35:06;;;;;;;17.77;10.33;;;14.40;99.90;;;;;;5115103;28;20252;-72
2023/09/30 01:37:32;;;;;;;14.73;9.80;;;14.40;99.90;;;;;;5114975;28;20171;-72
2023/09/30 01:39:57;;;;;;;16.43;10.63;;;14.40;99.90;;;;;;5114453;28;20186;-72
2023/09/30 01:42:23;;;;;;;16.20;10.27;;;14.40;99.90;;;;;;5114856;28;20179;-72
2023/09/30 01:44:48;;;;;;;15.43;10.13;;;14.30;99.90;;;;;;5114825;28;20183;-72
2023/09/30 01:47:14;;;;;;;14.83;10.47;;;14.20;99.90;;;;;;5114409;28;20207;-73
2023/09/30 01:49:39;;;;;;;14.53;9.80;;;14.20;99.90;;;;;;5115034;28;20181;-73
2023/09/30 01:52:05;;;;;;;20.87;11.10;;;14.20;99.90;;;;;;5114664;28;20205;-72
2023/09/30 01:54:31;;;;;;;12.93;11.03;;;14.20;99.90;;;;;;5114588;28;20175;-72
2023/09/30 01:56:56;;;;;;;15.70;9.50;;;14.20;99.90;;;;;;5114705;28;20250;-73
2023/09/30 01:59:22;;;;;;;19.00;10.87;;;14.20;99.90;;;;;;5114385;28;20251;-72
2023/09/30 02:01:48;;;;;;;14.07;10.23;;;14.20;99.90;;;;;;5114128;28;20175;-73
2023/09/30 02:04:15;;;;;;;14.00;9.67;;;14.20;99.90;;;;;;5114621;28;20175;-72
2023/09/30 02:06:41;;;;;;;15.00;10.07;;;14.10;99.90;;;;;;5114366;28;20649;-72
2023/09/30 02:09:08;;;;;;;18.17;10.60;;;14.10;99.90;;;;;;5113071;28;20242;-75
2023/09/30 02:11:37;;;;;;;15.97;10.10;;;14.00;99.90;;;;;;5114413;28;20186;-72
2023/09/30 02:14:05;;;;;;;15.60;10.47;;;14.00;99.90;;;;;;5114214;28;20718;-72
2023/09/30 02:16:31;;;;;;;16.17;10.90;;;14.10;99.90;;;;;;5112589;28;20198;-72
2023/09/30 02:18:57;;;;;;;16.83;11.13;;;14.00;99.90;;;;;;5114207;28;20171;-72
2023/09/30 02:21:22;;;;;;;15.80;10.50;;;14.00;99.90;;;;;;5113968;28;20238;-72
2023/09/30 02:23:48;;;;;;;16.23;10.63;;;14.00;99.90;;;;;;5112913;28;20514;-72
2023/09/30 02:26:17;;;;;;;18.80;10.67;;;14.00;99.90;;;;;;5114154;28;20296;-72
2023/09/30 02:28:43;;;;;;;18.77;11.17;;;13.90;99.90;;;;;;5112615;28;20214;-73
2023/09/30 02:31:09;;;;;;;15.57;11.13;;;13.90;99.90;;;;;;5112433;28;20175;-73
2023/09/30 02:33:38;;;;;;;19.53;11.57;;;13.90;99.90;;;;;;5114010;28;20175;-73
2023/09/30 02:36:07;;;;;;;15.63;10.67;;;13.90;99.90;;;;;;5114076;28;20170;-73
2023/09/30 02:38:33;;;;;;;16.27;10.37;;;13.90;99.90;;;;;;5112618;28;20603;-73
2023/09/30 02:40:58;;;;;;;20.60;11.77;;;13.80;99.90;;;;;;5114285;28;20249;-73
2023/09/30 02:43:24;;;;;;;19.90;11.17;;;13.80;99.90;;;;;;5113534;28;20570;-73
2023/09/30 02:45:50;;;;;;;18.73;10.80;;;13.80;99.90;;;;;;5113872;28;20768;-73
2023/09/30 02:48:15;;;;;;;19.77;11.37;;;13.90;99.90;;;;;;5113476;28;20240;-73
2023/09/30 02:50:44;;;;;;;20.37;11.63;;;13.80;99.90;;;;;;5113245;28;20593;-73
2023/09/30 02:53:12;;;;;;;17.83;11.07;;;13.80;99.90;;;;;;5113525;28;20171;-73
2023/09/30 02:55:37;;;;;;;20.27;10.77;;;13.80;99.90;;;;;;5113565;28;20186;-73
2023/09/30 02:58:03;;;;;;;16.37;11.37;;;13.70;99.90;;;;;;5113248;28;20630;-73
2023/09/30 03:00:32;;;;;;;17.40;11.63;;;13.80;99.90;;;;;;5113498;28;20171;-73
2023/09/30 03:03:00;;;;;;;21.13;12.40;;;13.80;99.90;;;;;;5113474;28;20171;-73
2023/09/30 03:05:27;;;;;;;26.00;11.97;;;13.70;99.90;;;;;;5113399;28;20160;-73
2023/09/30 03:07:55;;;;;;;26.27;12.53;;;13.80;99.90;;;;;;5113372;28;20238;-73
2023/09/30 03:10:23;;;;;;;22.90;12.67;;;13.80;99.90;;;;;;5113615;28;20170;-72
2023/09/30 03:12:50;;;;;;;20.67;12.03;;;13.80;99.90;;;;;;5111873;28;20179;-73
2023/09/30 03:15:16;;;;;;;21.80;12.47;;;13.70;99.90;;;;;;5113297;28;20191;-73
2023/09/30 03:17:43;;;;;;;23.93;12.90;;;13.70;99.90;;;;;;5112856;28;20535;-72
2023/09/30 03:20:13;;;;;;;20.17;12.50;;;13.70;99.90;;;;;;5113421;28;20303;-72
2023/09/30 03:22:42;;;;;;;20.20;12.30;;;13.80;99.90;;;;;;5113047;28;20227;-73
2023/09/30 03:25:12;;;;;;;21.23;12.93;;;13.70;99.90;;;;;;5113183;28;20171;-73
2023/09/30 03:27:38;;;;;;;21.53;12.23;;;13.70;99.90;;;;;;5112751;28;20341;-73
2023/09/30 03:30:08;;;;;;;21.37;12.30;;;13.70;99.90;;;;;;5113114;28;20176;-73
2023/09/30 03:32:37;;;;;;;24.73;12.50;;;13.70;99.90;;;;;;5113080;28;20167;-73
2023/09/30 03:35:05;;;;;;;27.57;12.63;;;13.60;99.90;;;;;;5113189;28;20182;-73
2023/09/30 03:37:31;;;;;;;23.23;13.07;;;13.60;99.90;;;;;;5113250;28;20174;-73
2023/09/30 03:39:57;;;;;;;20.70;11.97;;;13.70;99.90;;;;;;5113140;28;20245;-73
2023/09/30 03:42:23;;;;;;;24.97;12.40;;;13.60;99.90;;;;;;5112680;28;20588;-73
2023/09/30 03:44:49;;;;;;;24.53;13.50;;;13.60;99.90;;;;;;5112866;28;20176;-73
2023/09/30 03:47:18;;;;;;;24.43;13.03;;;13.60;99.90;;;;;;5113018;28;20254;-73
2023/09/30 03:49:44;;;;;;;22.83;12.90;;;13.60;99.90;;;;;;5112838;28;20240;-73
2023/09/30 03:52:10;;;;;;;23.00;13.50;;;13.60;99.90;;;;;;5113150;28;20622;-72
2023/09/30 03:54:37;;;;;;;30.20;12.10;;;13.60;99.90;;;;;;5113050;28;20212;-73
2023/09/30 03:57:03;;;;;;;24.00;12.73;;;13.50;99.90;;;;;;5112456;28;20262;-73
2023/09/30 03:59:30;;;;;;;23.33;13.27;;;13.60;99.90;;;;;;5112801;28;20186;-73
2023/09/30 04:01:58;;;;;;;25.37;13.47;;;13.50;99.90;;;;;;5113098;28;20167;-73
2023/09/30 04:04:25;;;;;;;28.37;13.93;;;13.50;99.90;;;;;;5116554;28;20171;-73
2023/09/30 04:06:51;;;;;;;21.17;13.30;;;13.50;99.90;;;;;;5116348;28;20163;-73
2023/09/30 04:09:17;;;;;;;24.43;13.43;;;13.50;99.90;;;;;;5116435;28;20613;-72
2023/09/30 04:11:43;;;;;;;25.73;13.17;;;13.50;99.90;;;;;;5116051;28;20179;-72
2023/09/30 04:14:09;;;;;;;27.20;12.80;;;13.50;99.90;;;;;;5116328;28;20167;-73
2023/09/30 04:16:37;;;;;;;27.00;13.53;;;13.50;99.90;;;;;;5116245;28;20199;-72
2023/09/30 04:19:03;;;;;;;24.07;12.73;;;13.50;99.90;;;;;;5116164;28;20174;-73
2023/09/30 04:21:32;;;;;;;27.20;13.70;;;13.50;99.90;;;;;;5115641;28;20604;-73
2023/09/30 04:23:57;;;;;;;28.40;14.10;;;13.40;99.90;;;;;;5115106;28;20183;-74
2023/09/30 04:26:23;;;;;;;29.47;13.27;;;13.40;99.90;;;;;;5114521;28;20669;-72
2023/09/30 04:28:49;;;;;;;22.47;13.60;;;13.40;99.90;;;;;;5115898;28;20206;-72
2023/09/30 04:31:14;;;;;;;21.37;13.57;;;13.40;99.90;;;;;;5116299;28;20215;-73
2023/09/30 04:33:40;;;;;;;24.57;13.33;;;13.40;99.90;;;;;;5115932;28;20172;-73
2023/09/30 04:36:08;;;;;;;28.90;13.67;;;13.40;99.90;;;;;;5115930;28;20167;-72
2023/09/30 04:38:37;;;;;;;29.27;13.10;;;13.30;99.90;;;;;;5115778;28;20179;-71
2023/09/30 04:41:03;;;;;;;21.30;12.93;;;13.30;99.90;;;;;;5115240;28;20270;-72
2023/09/30 04:43:29;;;;;;;27.03;14.40;;;13.30;99.90;;;;;;5115910;28;20206;-72
2023/09/30 04:45:56;;;;;;;25.00;13.37;;;13.30;99.90;;;;;;5115796;28;20258;-72
2023/09/30 04:48:23;;;;;;;24.67;12.37;;;13.20;99.90;;;;;;5114247;28;20242;-73
2023/09/30 04:50:49;;;;;;;27.73;12.27;;;13.30;99.90;;;;;;5115524;28;20175;-73
2023/09/30 04:53:17;;;;;;;26.67;12.63;;;13.20;99.90;;;;;;5114409;28;20183;-74
2023/09/30 04:55:43;;;;;;;31.57;12.43;;;13.30;99.90;;;;;;5115309;28;20547;-73
2023/09/30 04:58:09;;;;;;;27.27;12.20;;;13.20;99.90;;;;;;5115387;28;20179;-72
2023/09/30 05:00:35;;;;;;;30.40;12.70;;;13.20;99.90;;;;;;5115483;28;20316;-72
2023/09/30 05:03:00;;;;;;;24.97;11.90;;;13.20;99.90;;;;;;5115634;28;20232;-72
2023/09/30 05:05:28;;;;;;;26.37;12.27;;;13.20;99.90;;;;;;5115169;28;20176;-72
2023/09/30 05:07:54;;;;;;;21.57;12.23;;;13.20;99.90;;;;;;5114903;28;20201;-72
2023/09/30 05:10:19;;;;;;;29.43;13.30;;;13.20;99.90;;;;;;5114730;28;20254;-72
2023/09/30 05:12:45;;;;;;;32.80;12.87;;;13.20;99.90;;;;;;5115166;28;20220;-72
2023/09/30 05:15:13;;;;;;;32.40;12.77;;;13.10;99.90;;;;;;5114153;28;20645;-73
2023/09/30 05:17:39;;;;;;;25.13;11.90;;;13.10;99.90;;;;;;5114949;28;20175;-72
2023/09/30 05:20:06;;;;;;;24.67;11.80;;;13.10;99.90;;;;;;5115178;28;20216;-72
2023/09/30 05:22:33;;;;;;;32.47;13.10;;;13.10;99.90;;;;;;5114653;28;20256;-73
2023/09/30 05:24:59;;;;;;;27.10;12.70;;;13.10;99.90;;;;;;5114697;28;20163;-73
2023/09/30 05:27:24;;;;;;;28.57;12.50;;;13.10;99.90;;;;;;5114818;28;20247;-73
2023/09/30 05:29:50;;;;;;;25.10;11.63;;;13.00;99.90;;;;;;5115207;28;20171;-73
2023/09/30 05:32:16;;;;;;;23.97;11.43;;;13.10;99.90;;;;;;5114822;28;20197;-72
2023/09/30 05:34:41;;;;;;;24.40;11.57;;;13.10;99.90;;;;;;5114896;28;20176;-73
2023/09/30 05:37:07;;;;;;;23.77;11.83;;;13.10;99.90;;;;;;5114446;28;20162;-72
2023/09/30 05:39:32;;;;;;;28.63;11.90;;;13.00;99.90;;;;;;5114414;28;20176;-73
2023/09/30 05:41:58;;;;;;;28.10;11.90;;;13.00;99.90;;;;;;5112883;28;20202;-72
2023/09/30 05:44:26;;;;;;;32.60;12.27;;;13.00;99.90;;;;;;5114686;28;20171;-73
2023/09/30 05:46:51;;;;;;;23.40;12.07;;;13.00;99.90;;;;;;5114539;28;20179;-73
2023/09/30 05:49:19;;;;;;;27.93;11.87;;;13.10;99.90;;;;;;5114022;28;20244;-73
2023/09/30 05:51:46;;;;;;;24.27;11.47;;;13.10;99.90;;;;;;5114448;28;20164;-73
2023/09/30 05:54:12;;;;;;;28.13;11.83;;;13.10;99.90;;;;;;5113423;27;20171;-74
2023/09/30 05:56:38;;;;;;;32.97;12.13;;;13.10;99.90;;;;;;5114421;28;20163;-72
2023/09/30 05:59:05;;;;;;;24.67;11.53;;;13.10;99.90;;;;;;5114151;28;20174;-73
2023/09/30 06:01:35;;;;;;;22.47;11.97;;;13.20;99.90;;;;;;5114085;28;20179;-73
2023/09/30 06:04:00;;;;;;;28.33;11.43;;;13.20;99.90;;;;;;5113094;28;20182;-73
2023/09/30 06:06:30;;;;;;;22.47;10.60;;;13.30;99.90;;;;;;5113378;28;20529;-72
2023/09/30 06:08:59;;;;;;;21.33;11.13;;;13.40;99.90;;;;;;5114041;27;20207;-72
2023/09/30 06:11:25;;;;;;;26.47;10.83;;;13.50;99.90;;;;;;5113738;28;20167;-72
2023/09/30 06:14:00;;;;;;;24.10;10.50;;;13.50;99.90;;;;;;5113772;28;20220;-73
2023/09/30 06:16:26;;;;;;;24.40;10.53;;;13.70;99.90;;;;;;5113935;28;20231;-73
2023/09/30 06:18:54;;;;;;;23.40;10.53;;;13.80;99.90;;;;;;5113190;28;20504;-73
2023/09/30 06:21:25;;;;;;;24.20;10.77;;;14.00;99.90;;;;;;5113344;28;20222;-73
2023/09/30 06:23:53;;;;;;;21.83;10.10;;;14.10;99.90;;;;;;5113851;28;20166;-74
2023/09/30 06:26:20;;;;;;;23.83;9.93;;;14.30;99.90;;;;;;5113757;28;20171;-73
2023/09/30 06:28:47;;;;;;;17.67;9.53;;;14.40;99.90;;;;;;5113349;28;20202;-75
2023/09/30 06:31:13;;;;;;;17.47;9.00;;;14.40;99.90;;;;;;5113364;28;20162;-73
2023/09/30 06:33:39;;;;;;;24.20;10.13;;;14.50;99.90;;;;;;5113631;28;20175;-73
2023/09/30 06:36:09;;;;;;;18.50;8.50;;;14.60;99.90;;;;;;5113130;28;20250;-74
2023/09/30 06:38:36;;;;;;;20.37;8.47;;;14.60;99.90;;;;;;5113442;28;20179;-74
2023/09/30 06:41:02;;;;;;;16.50;8.07;;;14.60;99.90;;;;;;5113203;28;20695;-74
2023/09/30 06:43:28;;;;;;;20.50;8.63;;;14.80;99.90;;;;;;5113489;28;20174;-74
2023/09/30 06:45:54;;;;;;;17.47;7.57;;;14.90;99.90;;;;;;5113583;28;20213;-74
2023/09/30 06:48:21;;;;;;;12.90;6.60;;;15.30;99.90;;;;;;5113035;28;20241;-75
2023/09/30 06:50:48;;;;;;;17.03;7.47;;;15.50;99.90;;;;;;5112911;28;20163;-74
2023/09/30 06:53:21;;;;;;;20.53;7.00;;;15.80;99.90;;;;;;5113494;28;20174;-75
2023/09/30 06:55:47;;;;;;;15.98;6.57;;;16.40;99.90;;;;;;5113260;28;20175;-74
2023/09/30 06:58:13;;;;;;;14.05;7.32;;;16.90;96.80;;;;;;5112895;28;20217;-74
2023/09/30 07:00:41;;;;;;;23.00;7.07;;;17.70;90.10;;;;;;5113207;28;20174;-75
2023/09/30 07:03:09;;;;;;;16.23;6.47;;;19.00;56.60;;;;;;5113327;28;20159;-75
2023/09/30 07:05:36;;;;;;;13.40;5.88;;;19.90;23.80;;;;;;5112612;28;20175;-75
2023/09/30 07:08:02;;;;;;;13.27;5.65;;;20.80;2.90;;;;;;5112954;28;20195;-75
2023/09/30 07:10:31;;;;;;;12.68;6.38;;;21.20;1.00;;;;;;5112117;28;20171;-75
2023/09/30 07:12:57;;;;;;;15.27;6.13;;;21.40;1.00;;;;;;5111711;28;20581;-75
2023/09/30 07:15:23;;;;;;;14.20;6.22;;;21.70;1.00;;;;;;5112999;28;20270;-75
2023/09/30 07:17:48;;;;;;;14.98;5.78;;;21.90;1.00;;;;;;5113127;28;20176;-75
2023/09/30 07:20:14;;;;;;;14.95;6.07;;;22.10;1.00;;;;;;5112553;28;20163;-76
2023/09/30 07:22:40;;;;;;;14.48;5.90;;;22.70;99.90;;;;;;5112607;28;20256;-75
2023/09/30 07:25:07;;;;;;;15.20;6.72;;;23.70;99.90;;;;;;5113001;28;20635;-75
2023/09/30 07:27:33;;;;;;;11.50;5.82;;;23.30;99.60;;;;;;5112603;28;20206;-75
2023/09/30 07:29:59;;;;;;;11.05;5.88;;;23.60;99.10;;;;;;5113045;28;20202;-75
2023/09/30 07:32:26;;;;;;;12.68;6.05;;;23.70;98.70;;;;;;5112971;28;20191;-75
2023/09/30 07:34:52;;;;;;;12.80;5.97;;;23.70;98.50;;;;;;5112518;28;20212;-74
2023/09/30 07:37:18;;;;;;;12.30;5.13;;;23.70;98.80;;;;;;5113571;28;20522;-74
2023/09/30 07:39:44;;;;;;;13.60;6.00;;;24.10;97.90;;;;;;5117000;28;20170;-74
2023/09/30 07:42:10;;;;;;;11.13;6.03;;;24.50;96.50;;;;;;5116165;28;20535;-74
2023/09/30 07:44:38;;;;;;;14.35;6.32;;;23.70;98.00;;;;;;5117013;28;20174;-75
2023/09/30 07:47:06;;;;;;;10.98;5.78;;;24.40;97.10;;;;;;5116399;28;20189;-75
2023/09/30 07:49:35;;;;;;;13.65;5.53;;;25.60;94.80;;;;;;5116520;28;20783;-75
2023/09/30 07:52:00;;;;;;;14.65;5.70;;;25.40;93.60;;;;;;5116841;28;20619;-75
2023/09/30 07:54:26;;;;;;;14.02;5.80;;;25.80;93.00;;;;;;5116517;28;20178;-75
2023/09/30 07:56:52;;;;;;;13.40;5.93;;;26.30;91.10;;;;;;5116491;28;20308;-74
2023/09/30 07:59:17;;;;;;;13.63;6.07;;;26.80;90.30;;;;;;5116251;28;20645;-74
2023/09/30 08:01:43;;;;;;;13.82;5.82;;;27.10;87.10;;;;;;5116493;28;20174;-74
2023/09/30 08:04:09;;;;;;;10.40;6.13;;;26.50;89.50;;;;;;5116140;28;20168;-74
2023/09/30 08:06:34;;;;;;;13.43;5.80;;;26.70;88.60;;;;;;5116614;28;20171;-75
2023/09/30 08:09:00;;;;;;;12.48;5.78;;;26.30;90.10;;;;;;5115847;28;20260;-75
2023/09/30 08:11:30;;;;;;;13.15;6.13;;;26.20;90.00;;;;;;5116096;28;20610;-74
2023/09/30 08:13:58;;;;;;;16.52;6.18;;;26.00;90.50;;;;;;5116501;28;20266;-74
2023/09/30 08:16:24;;;;;;;12.18;6.43;;;26.00;90.20;;;;;;5116522;28;20244;-74
2023/09/30 08:18:50;;;;;;;9.80;6.00;;;26.60;88.90;;;;;;5115169;27;20171;-75
2023/09/30 08:21:15;;;;;;;13.75;5.72;;;27.20;84.40;;;;;;5115621;28;20207;-74
2023/09/30 08:23:41;;;;;;;14.10;6.38;;;27.20;84.50;;;;;;5116215;28;20167;-74
2023/09/30 08:26:06;;;;;;;13.13;6.57;;;27.00;85.50;;;;;;5116077;28;20571;-75
2023/09/30 08:28:32;;;;;;;12.40;6.47;;;26.00;89.40;;;;;;5115310;28;20211;-75
2023/09/30 08:31:05;;;;;;;13.30;6.10;;;26.20;90.60;;;;;;5116029;28;20639;-75
2023/09/30 08:33:31;;;;;;;15.80;6.78;;;26.80;89.10;;;;;;5115898;28;20167;-75
2023/09/30 08:36:07;;;;;;;12.50;6.25;;;27.50;84.50;;;;;;5115677;28;20183;-75
2023/09/30 08:38:36;;;;;;;11.70;6.57;;;28.20;81.00;;;;;;5116108;28;20258;-76
2023/09/30 08:41:02;;;;;;;14.25;6.07;;;28.70;77.90;;;;;;5115804;28;20168;-75
2023/09/30 08:43:30;;;;;;;15.60;6.57;;;28.60;76.30;;;;;;5115402;28;20219;-76
2023/09/30 08:45:57;;;;;;;13.30;6.32;;;28.80;76.00;;;;;;5114741;28;20182;-75
2023/09/30 08:48:30;;;;;;;13.75;6.22;;;28.00;77.60;;;;;;5114566;28;20222;-76
2023/09/30 08:50:57;;;;;;;10.68;6.03;;;28.80;76.30;;;;;;5115013;28;20242;-76
2023/09/30 08:53:24;;;;;;;11.60;6.53;;;28.90;75.80;;;;;;5115525;28;20171;-76
2023/09/30 08:55:54;;;;;;;12.00;6.30;;;29.20;71.90;;;;;;5115539;28;20159;-75
2023/09/30 08:58:23;;;;;;;13.15;6.18;;;28.60;72.90;;;;;;5115138;28;20163;-75
2023/09/30 09:00:49;;;;;;;10.32;5.88;;;28.50;75.00;;;;;;5115037;28;20198;-76
2023/09/30 09:03:14;;;;;;;13.63;6.43;;;28.30;75.50;;;;;;5115357;28;20825;-76
2023/09/30 09:05:40;;;;;;;10.65;6.10;;;28.80;74.50;;;;;;5114904;28;20183;-76
2023/09/30 09:08:06;;;;;;;12.20;5.60;;;28.60;74.00;;;;;;5115023;28;20191;-75
2023/09/30 09:10:32;;;;;;;11.50;6.00;;;28.10;75.10;;;;;;5115544;28;20171;-76
2023/09/30 09:12:59;;;;;;;11.73;6.22;;;28.30;75.50;;;;;;5114714;28;20175;-76
2023/09/30 09:15:26;;;;;;;9.60;5.43;;;28.30;76.50;;;;;;5115118;28;20183;-75
2023/09/30 09:17:52;;;;;;;13.35;5.75;;;27.70;76.20;;;;;;5114282;28;20182;-74
2023/09/30 09:20:24;;;;;;;14.40;6.53;;;27.40;79.00;;;;;;5114697;28;20567;-76
2023/09/30 09:22:55;;;;;;;12.90;5.70;;;27.80;79.30;;;;;;5072978;28;20190;-77
2023/09/30 09:25:26;;;;;;;14.30;6.15;;;27.90;79.30;;;;;;5072167;28;20204;-77
2023/09/30 09:27:53;;;;;;;14.63;5.47;;;28.10;78.00;;;;;;5074479;28;20257;-76
2023/09/30 09:30:26;;;;;;;10.88;5.38;;;28.00;77.70;;;;;;5073563;28;20271;-74
2023/09/30 09:32:53;;;;;;;9.00;5.15;;;28.50;76.10;;;;;;5074519;28;20207;-76
2023/09/30 09:35:21;;;;;;;13.80;5.43;;;27.00;80.90;;;;;;5073468;28;20164;-76
2023/09/30 09:38:06;;;;;;;9.45;5.25;;;27.30;82.10;;;;;;5074171;28;20192;-76
2023/09/30 09:40:37;;;;;;;12.52;5.82;;;26.60;82.90;;;;;;5074076;28;20176;-77
2023/09/30 09:43:05;;;;;;;10.70;5.32;;;26.80;84.50;;;;;;5073956;28;20165;-76
2023/09/30 09:45:33;;;;;;;10.82;4.90;;;26.80;84.80;;;;;;5073424;28;20215;-77
2023/09/30 09:47:59;;;;;;;10.02;4.72;;;26.90;83.00;;;;;;5074093;28;20188;-77
2023/09/30 09:50:26;;;;;;;12.63;4.93;;;27.00;81.60;;;;;;5074494;28;20239;-77
2023/09/30 09:52:55;;;;;;;10.73;4.50;;;27.40;80.20;;;;;;5074258;28;20196;-77
2023/09/30 09:55:23;;;;;;;10.07;4.60;;;27.50;78.50;;;;;;5074256;28;20619;-76
2023/09/30 09:57:49;;;;;;;9.38;4.45;;;28.30;76.20;;;;;;5072294;28;20262;-76
2023/09/30 10:00:20;;;;;;;8.75;4.22;;;28.00;77.40;;;;;;5071724;28;20223;-76
2023/09/30 10:02:47;;;;;;;9.73;4.40;;;27.80;77.50;;;;;;5074093;28;20161;-76
2023/09/30 10:05:14;;;;;;;11.85;4.60;;;27.90;75.10;;;;;;5073417;28;20545;-75
2023/09/30 10:08:00;;;;;;;7.75;4.35;;;27.50;78.90;;;;;;5073761;28;20188;-76
2023/09/30 10:10:28;;;;;;;6.03;3.63;;;27.90;76.70;;;;;;5074491;28;20263;-76
2023/09/30 10:12:53;;;;;;;11.15;4.80;;;27.50;76.10;;;;;;5073562;28;20203;-76
2023/09/30 10:15:25;;;;;;;8.00;3.83;;;27.20;77.70;;;;;;5073484;28;20667;-75
2023/09/30 10:18:11;;;;;;;11.57;3.85;;;26.60;79.20;;;;;;5073064;28;20165;-75
2023/09/30 10:20:43;;;;;;;8.85;4.13;;;27.20;80.80;;;;;;5076525;28;20183;-75
2023/09/30 10:23:21;;;;;;;10.50;4.38;;;27.90;77.90;;;;;;5113877;28;20178;-76
2023/09/30 10:25:54;;;;;;;10.02;4.20;;;27.90;77.70;;;;;;5113621;28;20163;-77
2023/09/30 10:28:39;;;;;;;11.70;4.63;;;27.40;76.30;;;;;;5113101;28;20210;-78
2023/09/30 10:31:17;;;;;;;9.63;4.50;;;26.90;78.40;;;;;;5113297;28;20230;-76
2023/09/30 10:34:01;;;;;;;8.23;4.03;;;27.00;80.00;;;;;;5113480;28;20648;-77
2023/09/30 10:36:35;;;;;;;12.57;4.78;;;26.20;82.60;;;;;;5112980;28;20171;-77
2023/09/30 10:39:02;;;;;;;11.52;4.30;;;26.30;83.90;;;;;;5113232;28;20662;-76
2023/09/30 10:41:45;;;;;;;5.85;3.80;;;26.00;84.60;;;;;;5113171;28;20182;-76
2023/09/30 10:44:25;;;;;;;8.65;3.75;;;25.30;85.60;;;;;;5113365;28;20163;-77
2023/09/30 10:46:51;;;;;;;9.13;4.47;;;25.80;87.00;;;;;;5113990;28;20167;-77
2023/09/30 10:49:23;;;;;;;8.05;3.85;;;26.00;84.60;;;;;;5113616;28;20677;-78
2023/09/30 10:51:56;;;;;;;9.18;4.38;;;25.70;86.50;;;;;;5113330;28;20179;-77
2023/09/30 10:54:23;;;;;;;7.82;3.97;;;26.20;85.90;;;;;;5113098;28;20228;-76
2023/09/30 10:56:49;;;;;;;5.88;3.58;;;26.10;85.00;;;;;;5112767;28;20171;-76
2023/09/30 10:59:25;;;;;;;7.68;3.90;;;26.10;81.70;;;;;;5112135;28;20235;-75
2023/09/30 11:01:54;;;;;;;9.02;3.63;;;25.70;84.90;;;;;;5113223;28;20637;-76
2023/09/30 11:04:20;;;;;;;6.95;3.40;;;25.90;84.50;;;;;;5112944;28;20261;-77
2023/09/30 11:06:46;;;;;;;7.22;3.60;;;26.30;80.50;;;;;;5112577;28;20182;-76
2023/09/30 11:09:20;;;;;;;7.07;3.63;;;26.40;80.60;;;;;;5113483;28;20203;-76
2023/09/30 11:11:50;;;;;;;6.88;3.42;;;25.90;80.90;;;;;;5112831;28;20220;-76
2023/09/30 11:14:30;;;;;;;7.40;3.55;;;25.80;82.00;;;;;;5117834;28;20633;-76
2023/09/30 11:17:01;;;;;;;7.95;3.38;;;26.30;80.60;;;;;;5116964;28;20215;-76
2023/09/30 11:19:46;;;;;;;6.57;2.97;;;26.50;78.50;;;;;;5115966;28;20202;-77
2023/09/30 11:22:12;;;;;;;7.80;3.00;;;26.20;77.70;;;;;;5117150;28;20249;-75
2023/09/30 11:24:38;;;;;;;6.45;3.38;;;24.90;83.90;;;;;;5117354;28;20178;-75
2023/09/30 11:27:04;;;;;;;7.18;3.47;;;24.60;87.50;;;;;;5116415;28;20483;-75
2023/09/30 11:29:30;;;;;;;8.25;3.55;;;23.70;56.90;;;;;;5116697;28;20683;-75
2023/09/30 11:31:55;;;;;;;7.70;3.75;;;23.50;99.90;;;;;;5117135;28;20167;-74
2023/09/30 11:34:35;;;;;;;7.80;4.00;;;23.80;99.90;;;;;;5116965;28;20198;-75
2023/09/30 11:37:01;;;;;;;9.80;3.60;;;24.60;99.90;;;;;;5116305;28;20505;-76
2023/09/30 11:39:29;;;;;;;9.48;3.85;;;25.20;89.40;;;;;;5117287;27;20258;-75
2023/09/30 11:41:56;;;;;;;6.72;3.88;;;24.80;88.30;;;;;;5116368;28;20175;-75
2023/09/30 11:44:23;;;;;;;8.70;4.15;;;25.40;87.10;;;;;;5115338;28;20172;-76
2023/09/30 11:47:00;;;;;;;8.00;3.97;;;25.90;84.50;;;;;;5116410;28;20163;-74
2023/09/30 11:49:35;;;;;;;8.32;3.85;;;26.10;83.40;;;;;;5116043;28;20214;-76
2023/09/30 11:52:03;;;;;;;9.55;4.57;;;26.20;81.70;;;;;;5116142;28;20188;-74
2023/09/30 11:54:46;;;;;;;8.02;3.50;;;25.80;83.70;;;;;;5115933;28;20163;-74
2023/09/30 11:57:18;;;;;;;7.57;3.65;;;24.90;85.70;;;;;;5114971;28;20261;-75
2023/09/30 11:59:45;;;;;;;6.03;3.95;;;24.00;84.90;;;;;;5116324;28;20179;-74
2023/09/30 12:02:12;;;;;;;7.20;3.33;;;23.20;1.00;;;;;;5116594;28;20171;-74
2023/09/30 12:04:38;;;;;;;6.85;3.75;;;23.70;43.70;;;;;;5115433;28;20254;-76
2023/09/30 12:07:06;;;;;;;8.25;3.85;;;23.80;99.90;;;;;;5116212;28;20203;-75
2023/09/30 12:09:35;;;;;;;8.07;3.63;;;24.00;99.90;;;;;;5115825;28;20215;-75
2023/09/30 12:12:00;;;;;;;7.07;3.53;;;24.20;26.10;;;;;;5116190;28;20623;-76
2023/09/30 12:14:26;;;;;;;7.15;3.40;;;24.50;85.00;;;;;;5115867;28;20171;-75
2023/09/30 12:16:52;;;;;;;6.38;3.45;;;24.70;84.50;;;;;;5114772;28;20643;-75
2023/09/30 12:19:18;;;;;;;7.63;3.53;;;24.70;84.30;;;;;;5115988;28;20171;-75
2023/09/30 12:21:46;;;;;;;7.35;3.53;;;24.40;87.00;;;;;;5115655;28;20226;-74
2023/09/30 12:24:16;;;;;;;6.75;3.50;;;23.80;90.10;;;;;;5113188;28;20191;-75
2023/09/30 12:26:48;;;;;;;7.10;3.45;;;23.40;90.80;;;;;;5115518;28;20175;-75
2023/09/30 12:29:17;;;;;;;7.63;3.60;;;23.30;90.30;;;;;;5114573;28;20219;-74
2023/09/30 12:31:44;;;;;;;7.07;3.33;;;23.20;90.20;;;;;;5116058;27;20223;-75
2023/09/30 12:34:15;;;;;;;5.93;3.15;;;23.30;90.50;;;;;;5115524;28;20232;-75
2023/09/30 12:36:41;;;;;;;8.40;3.67;;;23.40;88.90;;;;;;5115551;28;20175;-76